LICT/TPS METAR and TAF weather

Enter ICAO airport designator
Station Type Date Time Source
LICT METAR 2019/02/20 16:55 UTC NOAA

LICT 201655Z 35005KT 9999 FEW020 13/10 Q1023


Station Type Date Time Source
LICT Decoded METAR 2019/02/20 16:55 UTC NOAA

Trapani / Birgi, Italy (LICT) 37-55N 012-30E 14M
Feb 20, 2019 - 11:55 AM EST / 2019.02.20 1655 UTC
Wind: from the N (350 degrees) at 6 MPH (5 KT):0
Visibility: greater than 7 mile(s):0
Sky conditions: mostly clear
Temperature: 55 F (13 C)
Dew Point: 50 F (10 C)
Relative Humidity: 81%
Pressure (altimeter): 30.21 in. Hg (1023 hPa)
ob: LICT 201655Z 35005KT 9999 FEW020 13/10 Q1023
cycle: 17

Station Type Date Time Source
LICT TAF 2019/01/11 09:24 UTC NOAA

TAF TAF LICT 110800Z 1109/1121 33012KT 9999 SCT025


Example: see airport list